createdAt,value
2022-09-28T00:01:23.639Z,77.94
2022-09-28T00:03:53.583Z,77.57
2022-09-28T00:06:24.580Z,78.02
2022-09-28T00:08:51.942Z,78.13
2022-09-28T00:11:21.684Z,78.83
2022-09-28T00:13:51.802Z,79.19
2022-09-28T00:16:22.869Z,79.91
2022-09-28T00:18:52.512Z,79.90
2022-09-28T00:21:25.043Z,79.87
2022-09-28T00:24:22.936Z,79.39
2022-09-28T00:26:55.384Z,78.90
2022-09-28T00:29:23.627Z,79.12
2022-09-28T00:32:00.085Z,78.58
2022-09-28T00:34:27.566Z,79.22
2022-09-28T00:36:54.806Z,78.81
2022-09-28T00:39:21.817Z,78.59
2022-09-28T00:41:49.164Z,78.79
2022-09-28T00:44:25.605Z,79.06
2022-09-28T00:47:08.313Z,78.88
2022-09-28T00:49:42.916Z,78.68
2022-09-28T00:52:15.872Z,78.52
2022-09-28T00:54:46.046Z,78.76
2022-09-28T00:57:14.017Z,79.33
2022-09-28T00:59:42.248Z,79.26
2022-09-28T01:02:10.704Z,79.50
2022-09-28T01:04:38.945Z,79.17
2022-09-28T01:07:09.027Z,79.57
2022-09-28T01:09:39.262Z,79.17
2022-09-28T01:12:07.237Z,79.45
2022-09-28T01:14:34.524Z,79.59
2022-09-28T01:17:13.651Z,80.19
2022-09-28T01:20:07.934Z,80.49
2022-09-28T01:23:00.314Z,81.43
2022-09-28T01:25:39.414Z,81.81
2022-09-28T01:28:18.108Z,82.35
2022-09-28T01:31:00.063Z,82.17
2022-09-28T01:33:37.304Z,81.77
2022-09-28T01:36:25.329Z,81.79
2022-09-28T01:39:06.281Z,81.41
2022-09-28T01:41:36.952Z,81.28
2022-09-28T01:44:08.905Z,81.52
2022-09-28T01:46:44.777Z,83.60
2022-09-28T01:49:24.402Z,83.86
2022-09-28T01:51:57.974Z,84.86
2022-09-28T01:54:36.554Z,86.18
2022-09-28T01:57:18.576Z,85.94
2022-09-28T01:59:56.482Z,85.65
2022-09-28T02:02:32.611Z,86.05
2022-09-28T02:05:17.195Z,85.25
2022-09-28T02:08:04.329Z,85.08
2022-09-28T02:10:54.598Z,84.74
2022-09-28T02:13:31.082Z,84.54
2022-09-28T02:16:23.185Z,84.69
2022-09-28T02:18:51.471Z,84.56
2022-09-28T02:21:24.126Z,84.70
2022-09-28T02:24:10.166Z,84.68
2022-09-28T02:26:42.179Z,85.19
2022-09-28T02:29:09.374Z,85.18
2022-09-28T02:31:36.396Z,85.03
2022-09-28T02:34:03.631Z,85.11
2022-09-28T02:36:31.470Z,85.36
2022-09-28T02:38:58.578Z,85.06
2022-09-28T02:41:46.902Z,84.67
2022-09-28T02:44:30.758Z,85.19
2022-09-28T02:47:10.905Z,86.32
2022-09-28T02:50:07.239Z,86.05
2022-09-28T02:52:40.175Z,86.81
2022-09-28T02:55:12.867Z,86.77
2022-09-28T02:57:46.032Z,87.34
2022-09-28T03:00:19.456Z,87.15
2022-09-28T03:03:18.127Z,88.41
2022-09-28T03:06:21.527Z,90.22
2022-09-28T03:08:58.119Z,88.94
2022-09-28T03:11:52.002Z,88.39
2022-09-28T03:14:19.544Z,87.65
2022-09-28T03:16:51.861Z,88.81
2022-09-28T03:19:25.039Z,88.67
2022-09-28T03:21:52.295Z,88.23
2022-09-28T03:24:19.251Z,87.75
2022-09-28T03:26:46.657Z,87.86
2022-09-28T03:29:14.533Z,87.88
2022-09-28T03:31:44.389Z,87.95
2022-09-28T03:34:12.025Z,88.75
2022-09-28T03:36:38.992Z,88.92
2022-09-28T03:39:05.888Z,88.30
2022-09-28T03:41:32.835Z,88.36
2022-09-28T03:43:59.871Z,88.18
2022-09-28T03:46:28.577Z,87.86
2022-09-28T03:49:01.645Z,88.38
2022-09-28T03:51:29.119Z,88.09
2022-09-28T03:53:56.042Z,88.61
2022-09-28T03:56:23.127Z,88.76
2022-09-28T03:58:50.339Z,88.72
2022-09-28T04:01:18.022Z,88.49
2022-09-28T04:03:47.225Z,88.11
2022-09-28T04:06:14.971Z,88.04
2022-09-28T04:08:43.139Z,88.49
2022-09-28T04:11:09.995Z,88.76
2022-09-28T04:13:37.381Z,89.30
2022-09-28T04:16:06.265Z,90.24
2022-09-28T04:18:35.276Z,91.50
2022-09-28T04:21:11.489Z,92.13
2022-09-28T04:23:42.652Z,93.61
2022-09-28T04:26:25.449Z,92.28
2022-09-28T04:29:11.367Z,91.73
2022-09-28T04:31:53.613Z,90.52
2022-09-28T04:34:23.677Z,90.41
2022-09-28T04:36:51.290Z,90.03
2022-09-28T04:39:21.859Z,89.45
2022-09-28T04:41:52.123Z,89.36
2022-09-28T04:44:19.177Z,88.92
2022-09-28T04:47:04.225Z,88.80
2022-09-28T04:49:32.028Z,88.66
2022-09-28T04:52:07.826Z,88.76
2022-09-28T04:54:35.490Z,88.02
2022-09-28T04:57:03.843Z,88.56
2022-09-28T04:59:30.879Z,89.26
2022-09-28T05:01:58.051Z,89.69
2022-09-28T05:04:43.642Z,88.91
2022-09-28T05:07:31.484Z,89.65
2022-09-28T05:10:01.808Z,89.51
2022-09-28T05:12:31.225Z,90.13
2022-09-28T05:15:00.668Z,90.26
2022-09-28T05:17:28.680Z,90.70
2022-09-28T05:20:24.485Z,91.58
2022-09-28T05:22:52.319Z,91.41
2022-09-28T05:25:19.411Z,89.96
2022-09-28T05:27:57.534Z,89.06
2022-09-28T05:30:39.586Z,87.59
2022-09-28T05:33:26.447Z,87.12
2022-09-28T05:36:13.252Z,86.42
2022-09-28T05:38:42.107Z,88.55
2022-09-28T05:41:09.291Z,85.98
2022-09-28T05:43:36.730Z,84.69
2022-09-28T05:46:06.143Z,84.01
2022-09-28T05:48:35.940Z,84.23
2022-09-28T05:51:02.973Z,83.88
2022-09-28T05:53:30.467Z,83.46
2022-09-28T05:55:59.683Z,82.78
2022-09-28T05:58:28.150Z,82.75
2022-09-28T06:00:58.464Z,82.17
2022-09-28T06:03:27.208Z,81.95
2022-09-28T06:05:54.604Z,81.16
2022-09-28T06:08:21.826Z,80.82
2022-09-28T06:11:01.056Z,81.21
2022-09-28T06:13:28.966Z,80.91
2022-09-28T06:15:56.128Z,79.70
2022-09-28T06:18:23.222Z,79.29
2022-09-28T06:21:14.825Z,78.01
2022-09-28T06:23:48.998Z,77.10
2022-09-28T06:26:17.703Z,76.34
2022-09-28T06:28:45.576Z,76.42
2022-09-28T06:31:13.843Z,75.93
2022-09-28T06:33:45.489Z,76.21
2022-09-28T06:36:13.823Z,77.70
2022-09-28T06:38:40.785Z,77.54
2022-09-28T06:41:08.059Z,77.68
2022-09-28T06:43:35.331Z,78.80
2022-09-28T06:46:21.443Z,77.69
2022-09-28T06:48:49.078Z,77.38
2022-09-28T06:51:25.328Z,76.79
2022-09-28T06:54:07.327Z,76.45
2022-09-28T06:56:40.284Z,75.58
2022-09-28T06:59:07.244Z,74.71
2022-09-28T07:01:35.718Z,74.22
2022-09-28T07:04:18.502Z,74.61
2022-09-28T07:07:18.463Z,73.93
2022-09-28T07:10:04.473Z,73.58
2022-09-28T07:12:44.316Z,73.32
2022-09-28T07:15:24.826Z,73.17
2022-09-28T07:18:02.784Z,71.81
2022-09-28T07:20:45.382Z,71.63
2022-09-28T07:23:19.810Z,71.85
2022-09-28T07:26:08.149Z,71.43
2022-09-28T07:28:56.043Z,70.28
2022-09-28T07:31:33.797Z,69.72
2022-09-28T07:34:44.147Z,70.01
2022-09-28T07:37:19.018Z,70.08
2022-09-28T07:40:06.207Z,69.67
2022-09-28T07:42:38.425Z,68.29
2022-09-28T07:45:07.462Z,67.93
2022-09-28T07:47:35.385Z,67.97
2022-09-28T07:50:32.430Z,67.07
2022-09-28T07:53:06.283Z,65.77
2022-09-28T07:56:07.469Z,65.23
2022-09-28T07:58:43.184Z,65.10
2022-09-28T08:01:31.411Z,64.74
2022-09-28T08:04:00.169Z,64.21
2022-09-28T08:06:27.072Z,63.87
2022-09-28T08:08:56.818Z,62.45
2022-09-28T08:11:32.783Z,62.10
2022-09-28T08:14:23.664Z,61.26
2022-09-28T08:17:11.117Z,58.65
2022-09-28T08:20:03.155Z,60.80
2022-09-28T08:22:32.487Z,60.01
2022-09-28T08:25:00.658Z,60.03
2022-09-28T08:27:29.882Z,59.60
2022-09-28T08:29:56.940Z,59.14
2022-09-28T08:32:59.759Z,58.39
2022-09-28T08:35:42.380Z,57.44
2022-09-28T08:38:14.992Z,56.93
2022-09-28T08:41:21.507Z,55.52
2022-09-28T08:44:16.238Z,55.41
2022-09-28T08:47:30.060Z,55.08
2022-09-28T08:50:29.350Z,54.67
2022-09-28T08:53:38.974Z,54.81
2022-09-28T08:56:32.741Z,55.73
2022-09-28T08:59:04.594Z,54.52
2022-09-28T09:01:38.789Z,53.82
2022-09-28T09:04:10.492Z,54.23
2022-09-28T09:07:25.115Z,54.53
2022-09-28T09:10:36.715Z,54.24
2022-09-28T09:13:23.793Z,53.61
2022-09-28T09:16:24.365Z,52.14
2022-09-28T09:19:36.563Z,54.25
2022-09-28T09:22:42.351Z,53.61
2022-09-28T09:25:35.373Z,52.79
2022-09-28T09:28:35.384Z,52.00
2022-09-28T09:31:20.727Z,51.30
2022-09-28T09:34:25.531Z,51.47
2022-09-28T09:37:28.600Z,51.88
2022-09-28T09:44:18.535Z,50.80
2022-09-28T09:47:13.600Z,49.79
2022-09-28T09:50:30.460Z,46.95
2022-09-28T09:53:06.921Z,48.77
2022-09-28T09:55:42.104Z,48.17
2022-09-28T10:13:13.626Z,47.18
2022-09-28T10:15:42.554Z,46.85
2022-09-28T10:18:21.091Z,46.45
2022-09-28T10:21:06.935Z,46.36
2022-09-28T10:23:59.734Z,46.50
2022-09-28T10:26:36.226Z,44.47
2022-09-28T10:29:13.239Z,45.09
2022-09-28T10:31:45.473Z,44.80
2022-09-28T10:34:28.879Z,44.48
2022-09-28T10:37:01.407Z,44.53
2022-09-28T10:39:47.190Z,44.12
2022-09-28T10:42:21.261Z,44.48
2022-09-28T10:45:23.449Z,43.57
2022-09-28T10:47:52.220Z,44.17
2022-09-28T10:50:23.787Z,44.23
2022-09-28T10:53:32.097Z,41.89
2022-09-28T10:56:18.503Z,42.41
2022-09-28T10:58:47.036Z,41.50
2022-09-28T11:01:26.866Z,41.09
2022-09-28T11:04:02.558Z,41.48
2022-09-28T11:06:32.959Z,41.17
2022-09-28T11:09:03.125Z,41.18
2022-09-28T11:11:32.047Z,40.91
2022-09-28T11:14:04.287Z,40.19
2022-09-28T11:16:36.756Z,39.39
2022-09-28T11:19:20.332Z,36.15
2022-09-28T11:21:48.593Z,37.35
2022-09-28T11:24:19.101Z,37.58
2022-09-28T11:26:50.310Z,37.52
2022-09-28T11:29:45.511Z,37.27
2022-09-28T11:32:24.620Z,38.23
2022-09-28T11:35:19.878Z,37.56
2022-09-28T11:37:59.642Z,37.73
2022-09-28T11:41:15.684Z,38.59
2022-09-28T11:44:05.728Z,37.25
2022-09-28T11:46:44.581Z,37.49
2022-09-28T11:49:22.776Z,37.17
2022-09-28T11:51:52.874Z,38.76
2022-09-28T11:54:19.892Z,39.65
2022-09-28T11:56:49.880Z,38.56
2022-09-28T11:59:40.004Z,35.24
2022-09-28T12:02:17.080Z,36.53
2022-09-28T12:05:07.979Z,37.85
2022-09-28T12:07:44.731Z,38.68
2022-09-28T12:11:00.907Z,36.84
2022-09-28T12:14:04.882Z,37.30
2022-09-28T12:19:44.214Z,34.51
2022-09-28T12:22:25.604Z,33.80
2022-09-28T12:24:56.787Z,34.61
2022-09-28T12:27:29.783Z,34.01
2022-09-28T12:30:04.628Z,34.95
2022-09-28T12:32:47.001Z,35.92
2022-09-28T12:35:20.186Z,35.75
2022-09-28T12:38:24.700Z,32.62
2022-09-28T12:40:55.806Z,33.46
2022-09-28T12:43:33.558Z,31.70
2022-09-28T12:46:13.854Z,33.90
2022-09-28T12:49:51.466Z,31.74
2022-09-28T12:51:55.024Z,33.31
2022-09-28T12:54:42.172Z,32.96
2022-09-28T12:57:24.493Z,33.36
2022-09-28T13:00:12.516Z,31.74
2022-09-28T13:03:07.825Z,32.00
2022-09-28T13:06:07.093Z,32.55
2022-09-28T13:09:06.747Z,31.83
2022-09-28T13:11:43.907Z,33.70
2022-09-28T13:14:49.757Z,31.65
2022-09-28T13:18:01.031Z,33.58
2022-09-28T13:20:35.900Z,34.09
2022-09-28T13:23:16.577Z,33.03
2022-09-28T13:25:51.042Z,34.24
2022-09-28T13:28:26.174Z,33.74
2022-09-28T13:33:45.080Z,30.98
2022-09-28T13:36:33.037Z,32.02
2022-09-28T13:39:00.930Z,32.82
2022-09-28T13:41:40.508Z,32.31
2022-09-28T13:44:13.946Z,32.17
2022-09-28T13:47:10.184Z,32.01
2022-09-28T13:49:56.716Z,32.42
2022-09-28T13:52:44.567Z,31.36
2022-09-28T13:55:22.303Z,31.65
2022-09-28T13:57:54.281Z,31.64
2022-09-28T14:00:44.472Z,31.35
2022-09-28T14:03:26.138Z,30.43
2022-09-28T14:06:04.613Z,30.54
2022-09-28T14:08:38.679Z,29.34
2022-09-28T14:11:36.887Z,29.19
2022-09-28T14:14:14.773Z,27.30
2022-09-28T14:16:43.414Z,27.43
2022-09-28T14:19:32.444Z,25.80
2022-09-28T14:22:11.453Z,26.86
2022-09-28T14:24:48.243Z,25.57
2022-09-28T14:27:21.021Z,25.58
2022-09-28T14:29:54.302Z,25.75
2022-09-28T14:32:24.209Z,25.68
2022-09-28T14:35:01.653Z,25.26
2022-09-28T14:37:56.406Z,25.24
2022-09-28T14:40:49.752Z,25.50
2022-09-28T14:43:35.832Z,24.45
2022-09-28T14:46:12.892Z,24.85
2022-09-28T14:48:49.195Z,24.45
2022-09-28T14:51:34.115Z,24.35
2022-09-28T14:54:14.124Z,25.56
2022-09-28T14:57:09.739Z,24.84
2022-09-28T14:59:43.588Z,25.49
2022-09-28T15:02:11.121Z,26.24
2022-09-28T15:04:47.194Z,25.74
2022-09-28T15:07:33.379Z,25.26
2022-09-28T15:10:02.751Z,25.58
2022-09-28T15:12:32.797Z,25.08
2022-09-28T15:15:08.640Z,24.87
2022-09-28T15:17:40.876Z,25.08
2022-09-28T15:20:41.817Z,25.01
2022-09-28T15:23:37.315Z,25.64
2022-09-28T15:26:09.745Z,27.02
2022-09-28T15:28:39.455Z,27.73
2022-09-28T15:31:06.629Z,28.10
2022-09-28T15:33:53.700Z,28.47
2022-09-28T15:36:25.655Z,29.29
2022-09-28T15:38:59.543Z,29.89
2022-09-28T15:41:27.459Z,30.21
2022-09-28T15:44:12.336Z,30.82
2022-09-28T15:46:43.228Z,31.26
2022-09-28T15:49:45.496Z,31.77
2022-09-28T15:52:42.960Z,32.13
2022-09-28T15:55:21.112Z,32.32
2022-09-28T15:57:49.711Z,32.71
2022-09-28T16:00:28.993Z,32.81
2022-09-28T16:03:22.309Z,32.99
2022-09-28T16:05:58.479Z,33.32
2022-09-28T16:08:33.099Z,33.93
2022-09-28T16:11:18.406Z,34.52
2022-09-28T16:13:48.970Z,34.57
2022-09-28T16:16:17.230Z,34.96
2022-09-28T16:18:49.029Z,35.50
2022-09-28T16:21:39.266Z,35.58
2022-09-28T16:24:08.599Z,35.64
2022-09-28T16:26:39.039Z,36.77
2022-09-28T16:29:25.908Z,36.79
2022-09-28T16:31:53.314Z,37.31
2022-09-28T16:34:24.609Z,37.37
2022-09-28T16:36:51.728Z,37.47
2022-09-28T16:39:19.324Z,38.13
2022-09-28T16:41:53.974Z,38.66
2022-09-28T16:44:28.511Z,38.68
2022-09-28T16:46:58.584Z,39.01
2022-09-28T16:49:26.926Z,39.69
2022-09-28T16:51:54.334Z,40.88
2022-09-28T16:54:42.741Z,42.03
2022-09-28T16:57:15.072Z,43.98
2022-09-28T16:59:42.060Z,45.05
2022-09-28T17:05:14.012Z,46.80
2022-09-28T17:07:41.000Z,47.62
2022-09-28T17:10:50.114Z,50.45
2022-09-28T17:13:33.379Z,49.44
2022-09-28T17:16:09.087Z,51.60
2022-09-28T17:18:40.140Z,50.33
2022-09-28T17:21:12.437Z,51.02
2022-09-28T17:23:39.669Z,51.78
2022-09-28T17:26:06.855Z,51.97
2022-09-28T17:28:36.421Z,51.99
2022-09-28T17:31:04.991Z,52.49
2022-09-28T17:33:32.394Z,52.68
2022-09-28T17:36:01.555Z,52.92
2022-09-28T17:38:28.562Z,52.85
2022-09-28T17:40:55.737Z,52.86
2022-09-28T17:43:22.769Z,52.79
2022-09-28T17:45:50.833Z,52.94
2022-09-28T17:48:23.474Z,52.63
2022-09-28T17:50:51.278Z,53.07
2022-09-28T17:53:18.399Z,53.33
2022-09-28T17:55:47.891Z,53.08
2022-09-28T17:58:16.778Z,53.44
2022-09-28T18:00:46.123Z,53.80
2022-09-28T18:03:16.308Z,53.68
2022-09-28T18:05:54.074Z,54.02
2022-09-28T18:08:23.053Z,54.46
2022-09-28T18:10:50.740Z,54.46
2022-09-28T18:13:18.182Z,54.15
2022-09-28T18:15:45.170Z,54.42
2022-09-28T18:18:13.062Z,54.59
2022-09-28T18:20:41.683Z,54.85
2022-09-28T18:23:08.857Z,55.03
2022-09-28T18:25:39.695Z,55.63
2022-09-28T18:28:07.115Z,55.26
2022-09-28T18:30:34.370Z,56.08
2022-09-28T18:33:01.877Z,56.51
2022-09-28T18:35:29.255Z,57.81
2022-09-28T18:37:56.790Z,58.90
2022-09-28T18:40:24.236Z,57.91
2022-09-28T18:42:52.238Z,58.33
2022-09-28T18:45:19.281Z,57.90
2022-09-28T18:47:46.944Z,58.45
2022-09-28T18:50:15.733Z,58.05
2022-09-28T18:52:45.002Z,57.61
2022-09-28T18:55:12.698Z,58.37
2022-09-28T18:57:41.705Z,57.27
2022-09-28T19:00:11.726Z,57.09
2022-09-28T19:02:39.284Z,56.41
2022-09-28T19:05:07.271Z,56.36
2022-09-28T19:07:34.839Z,56.37
2022-09-28T19:10:02.025Z,57.30
2022-09-28T19:12:29.557Z,58.02
2022-09-28T19:14:56.585Z,58.10
2022-09-28T19:17:24.129Z,57.50
2022-09-28T19:19:52.113Z,57.06
2022-09-28T19:22:19.302Z,57.29
2022-09-28T19:24:46.224Z,57.29
2022-09-28T19:27:13.971Z,57.91
2022-09-28T19:29:40.983Z,58.83
2022-09-28T19:32:08.255Z,59.16
2022-09-28T19:34:35.481Z,59.65
2022-09-28T19:37:04.040Z,59.58
2022-09-28T19:39:31.164Z,59.96
2022-09-28T19:42:00.505Z,60.73
2022-09-28T19:44:28.894Z,60.48
2022-09-28T19:47:08.234Z,60.07
2022-09-28T19:49:37.519Z,60.06
2022-09-28T19:52:13.259Z,60.80
2022-09-28T19:54:57.736Z,61.14
2022-09-28T19:57:27.884Z,60.22
2022-09-28T20:00:00.910Z,60.65
2022-09-28T20:02:33.894Z,61.50
2022-09-28T20:05:03.126Z,61.68
2022-09-28T20:07:33.075Z,61.46
2022-09-28T20:10:01.017Z,61.43
2022-09-28T20:12:27.920Z,61.58
2022-09-28T20:14:55.182Z,61.73
2022-09-28T20:17:22.867Z,62.09
2022-09-28T20:19:51.927Z,62.20
2022-09-28T20:22:19.443Z,62.32
2022-09-28T20:24:47.590Z,62.72
2022-09-28T20:27:14.598Z,62.98
2022-09-28T20:29:43.183Z,63.96
2022-09-28T20:32:16.441Z,63.81
2022-09-28T20:34:43.893Z,64.23
2022-09-28T20:37:13.766Z,64.32
2022-09-28T20:39:44.804Z,64.60
2022-09-28T20:42:12.654Z,64.82
2022-09-28T20:44:39.524Z,65.20
2022-09-28T20:47:08.317Z,65.82
2022-09-28T20:49:37.052Z,65.52
2022-09-28T20:52:04.231Z,65.66
2022-09-28T20:54:31.186Z,65.19
2022-09-28T20:56:58.518Z,65.39
2022-09-28T20:59:26.599Z,66.18
2022-09-28T21:01:56.520Z,66.75
2022-09-28T21:04:24.523Z,66.61
2022-09-28T21:06:52.006Z,66.45
2022-09-28T21:09:19.540Z,67.18
2022-09-28T21:11:47.106Z,67.60
2022-09-28T21:14:14.253Z,67.48
2022-09-28T21:16:41.131Z,67.60
2022-09-28T21:19:08.525Z,67.57
2022-09-28T21:21:35.603Z,67.20
2022-09-28T21:24:03.173Z,66.10
2022-09-28T21:26:31.715Z,67.61
2022-09-28T21:29:02.059Z,68.38
2022-09-28T21:31:33.002Z,68.60
2022-09-28T21:34:00.860Z,68.73
2022-09-28T21:36:27.732Z,68.72
2022-09-28T21:38:56.210Z,69.01
2022-09-28T21:41:26.019Z,70.00
2022-09-28T21:43:53.714Z,69.06
2022-09-28T21:46:21.225Z,68.80
2022-09-28T21:48:53.616Z,67.79
2022-09-28T21:51:21.456Z,68.22
2022-09-28T21:53:49.617Z,67.90
2022-09-28T21:56:17.615Z,68.48
2022-09-28T21:58:44.505Z,69.13
2022-09-28T22:01:20.855Z,69.17
2022-09-28T22:03:51.011Z,70.26
2022-09-28T22:06:23.722Z,72.57
2022-09-28T22:08:51.526Z,71.19
2022-09-28T22:11:21.371Z,71.73
2022-09-28T22:13:54.689Z,71.96
2022-09-28T22:16:24.672Z,71.73
2022-09-28T22:18:51.682Z,71.89
2022-09-28T22:21:24.448Z,72.24
2022-09-28T22:23:52.517Z,72.42
2022-09-28T22:26:25.883Z,73.63
2022-09-28T22:28:58.408Z,74.09
2022-09-28T22:31:29.575Z,73.45
2022-09-28T22:33:57.433Z,73.22
2022-09-28T22:36:26.001Z,73.15
2022-09-28T22:38:55.604Z,72.53
2022-09-28T22:41:22.523Z,73.12
2022-09-28T22:43:51.255Z,73.00
2022-09-28T22:46:24.676Z,72.81
2022-09-28T22:48:54.159Z,72.50
2022-09-28T22:51:22.286Z,72.95
2022-09-28T22:53:50.331Z,73.03
2022-09-28T22:56:19.191Z,73.58
2022-09-28T22:58:47.079Z,73.38
2022-09-28T23:01:18.019Z,72.98
2022-09-28T23:03:45.730Z,73.39
2022-09-28T23:06:15.063Z,73.40
2022-09-28T23:08:43.549Z,73.28
2022-09-28T23:11:10.535Z,73.01
2022-09-28T23:13:39.588Z,74.13
2022-09-28T23:16:08.876Z,73.21
2022-09-28T23:18:38.506Z,74.10
2022-09-28T23:21:07.919Z,74.17
2022-09-28T23:23:35.385Z,73.88
2022-09-28T23:26:14.302Z,74.49
2022-09-28T23:28:42.282Z,74.61
2022-09-28T23:31:15.482Z,74.83
2022-09-28T23:33:43.064Z,75.93
2022-09-28T23:36:10.042Z,76.89
2022-09-28T23:38:37.725Z,76.37
2022-09-28T23:41:05.502Z,76.49
2022-09-28T23:43:33.079Z,76.79
2022-09-28T23:46:00.112Z,75.94
2022-09-28T23:48:27.618Z,75.92
2022-09-28T23:50:54.533Z,74.82
2022-09-28T23:53:21.783Z,74.83
2022-09-28T23:55:49.067Z,74.87
2022-09-28T23:58:16.009Z,75.41
